Time;durP1;ratioP1;P1;durP2;ratioP2;P2;SDS_P1;SDS_P2;PMS_P1;PMS_P2;Temp;Humidity;BMP_temperature;BMP_pressure;BME280_temperature;BME280_humidity;BME280_pressure;Samples;Min_cycle;Max_cycle;Signal;HPM_P1;HPM_P2
2022/02/05 00:01:17;;;;;;;11.13;3.65;;;;;;;2.41;92.16;101359.75;5050635;28;20029;-78
2022/02/05 00:03:47;;;;;;;12.52;4.25;;;;;;;2.31;92.21;101352.59;5061929;28;20037;-77
2022/02/05 00:06:16;;;;;;;8.52;3.75;;;;;;;2.37;91.92;101366.78;5026089;28;20028;-78
2022/02/05 00:39:01;;;;;;;9.48;3.70;;;;;;;2.34;91.15;101413.06;5065870;28;20707;-77
2022/02/05 00:42:08;;;;;;;9.70;3.03;;;;;;;2.41;91.56;101421.19;5031968;28;20027;-77
2022/02/05 00:44:18;;;;;;;10.15;3.25;;;;;;;2.41;91.14;101418.63;5042405;28;20048;-77
2022/02/05 00:46:44;;;;;;;11.95;3.75;;;;;;;2.30;91.63;101426.94;5053727;28;20040;-77
2022/02/05 00:49:10;;;;;;;7.55;3.22;;;;;;;2.37;91.47;101419.72;5051548;28;20471;-78
2022/02/05 00:51:48;;;;;;;9.85;3.08;;;;;;;2.41;90.75;101426.31;5063183;28;20037;-78
2022/02/05 00:54:17;;;;;;;10.60;3.00;;;;;;;2.47;91.17;101433.66;5046209;28;20056;-77
2022/02/05 00:59:15;;;;;;;13.20;3.60;;;;;;;2.45;90.93;101426.06;5065720;28;20028;-78
2022/02/05 01:01:42;;;;;;;11.90;3.17;;;;;;;2.37;91.15;101430.78;5048792;28;20029;-77
2022/02/05 01:04:07;;;;;;;10.07;4.45;;;;;;;2.41;91.45;101436.53;5048019;28;20093;-77
2022/02/05 01:06:33;;;;;;;10.10;3.60;;;;;;;2.46;90.74;101437.13;5047857;28;20407;-77
2022/02/05 01:09:03;;;;;;;13.63;2.92;;;;;;;2.29;91.58;101438.06;5068543;28;20032;-77
2022/02/05 01:11:29;;;;;;;10.40;3.13;;;;;;;2.30;91.62;101439.75;5067624;28;20032;-77
2022/02/05 01:13:56;;;;;;;13.18;3.13;;;;;;;2.40;91.56;101442.59;5049902;28;20058;-77
2022/02/05 01:16:31;;;;;;;9.43;3.67;;;;;;;2.30;91.62;101440.56;5050858;28;20039;-77
2022/02/05 01:18:56;;;;;;;10.30;3.28;;;;;;;2.38;91.33;101452.91;5065598;28;20041;-78
2022/02/05 01:23:59;;;;;;;11.18;2.88;;;;;;;2.18;91.76;101450.66;5065666;28;20028;-77
2022/02/05 01:29:00;;;;;;;18.65;4.05;;;;;;;2.28;91.82;101456.88;5069051;28;20048;-77
2022/02/05 01:31:30;;;;;;;13.75;3.70;;;;;;;2.25;92.39;101457.06;5049265;28;20036;-78
2022/02/05 01:34:10;;;;;;;9.60;3.25;;;;;;;2.37;91.66;101455.56;5065762;28;20044;-78
2022/02/05 01:52:48;;;;;;;14.35;4.15;;;;;;;2.32;90.99;101500.16;5068731;28;20036;-77
2022/02/05 01:55:32;;;;;;;13.95;3.22;;;;;;;2.19;91.54;101500.94;5066206;28;20037;-76
2022/02/05 02:06:24;;;;;;;18.85;3.33;;;;;;;2.30;91.27;101509.66;5059277;28;20028;-77
2022/02/05 02:11:47;;;;;;;12.45;3.53;;;;;;;2.23;91.49;101512.66;5064799;28;20096;-77
2022/02/05 02:14:33;;;;;;;12.88;3.10;;;;;;;2.23;91.67;101513.47;5066911;28;20101;-78
2022/02/05 02:27:15;;;;;;;8.90;2.38;;;;;;;2.18;91.26;101512.06;5067794;28;20040;-78
2022/02/05 02:32:19;;;;;;;10.70;2.53;;;;;;;2.17;90.86;101516.38;5067402;28;20028;-77
2022/02/05 02:34:50;;;;;;;15.20;3.10;;;;;;;2.05;91.30;101525.50;5067312;28;20125;-79
2022/02/05 02:37:21;;;;;;;8.82;2.50;;;;;;;2.17;91.23;101524.03;5045979;28;20040;-76
2022/02/05 02:42:30;;;;;;;17.17;3.55;;;;;;;2.18;90.81;101542.78;5063887;28;20072;-77
2022/02/05 02:44:56;;;;;;;22.40;3.58;;;;;;;2.12;90.97;101541.38;5046964;28;20463;-77
2022/02/05 02:47:21;;;;;;;13.77;2.88;;;;;;;2.05;90.92;101543.41;5045629;28;20037;-77
2022/02/05 02:49:59;;;;;;;14.15;2.78;;;;;;;2.11;90.75;101547.38;5046859;28;20063;-76
2022/02/05 02:58:00;;;;;;;16.40;2.53;;;;;;;2.24;90.24;101561.19;5064026;28;20486;-77
2022/02/05 03:00:26;;;;;;;15.05;3.17;;;;;;;2.05;90.84;101566.44;5044246;28;20056;-77
2022/02/05 03:02:52;;;;;;;14.93;2.67;;;;;;;2.00;91.13;101557.38;5045671;28;20029;-76
2022/02/05 03:05:18;;;;;;;12.70;2.60;;;;;;;2.11;91.06;101565.28;5059889;28;20379;-77
2022/02/05 03:07:43;;;;;;;14.75;2.90;;;;;;;2.19;90.84;101559.78;5044839;28;20024;-77
2022/02/05 03:10:09;;;;;;;11.57;2.47;;;;;;;2.09;91.10;101564.56;5031282;28;20399;-77
2022/02/05 03:12:35;;;;;;;15.13;3.10;;;;;;;2.10;90.77;101571.34;5044111;28;20111;-76
2022/02/05 03:15:03;;;;;;;12.27;2.88;;;;;;;2.07;90.86;101563.81;5063928;28;20043;-77
2022/02/05 03:17:37;;;;;;;15.73;2.60;;;;;;;2.01;91.06;101566.72;5047770;28;20032;-76
2022/02/05 03:20:03;;;;;;;15.68;3.33;;;;;;;2.01;90.73;101564.97;5044703;28;20498;-78
2022/02/05 03:22:29;;;;;;;10.98;2.72;;;;;;;2.08;90.64;101563.75;5062119;28;20028;-77
2022/02/05 03:24:55;;;;;;;12.77;2.25;;;;;;;2.11;90.75;101573.81;5063266;28;20035;-76
2022/02/05 03:27:21;;;;;;;11.50;2.67;;;;;;;2.12;90.50;101566.97;5044887;28;20476;-78
2022/02/05 03:29:49;;;;;;;13.45;2.63;;;;;;;2.22;89.98;101577.53;5062603;28;20028;-77
2022/02/05 03:32:16;;;;;;;15.18;2.47;;;;;;;2.25;90.09;101575.63;5064189;28;20038;-77
2022/02/05 03:34:42;;;;;;;10.93;2.08;;;;;;;2.16;89.72;101572.75;5062504;28;20040;-76
2022/02/05 03:37:08;;;;;;;12.63;2.20;;;;;;;2.16;89.73;101577.84;5045791;28;20331;-76
2022/02/05 03:39:33;;;;;;;14.18;2.35;;;;;;;2.16;89.96;101585.53;5045217;28;20067;-76
2022/02/05 03:42:00;;;;;;;25.90;2.63;;;;;;;2.18;89.83;101586.28;5047579;28;20032;-77
2022/02/05 03:44:26;;;;;;;7.90;2.20;;;;;;;2.18;89.82;101594.78;5027958;28;20331;-77
2022/02/05 03:46:54;;;;;;;7.45;2.10;;;;;;;2.10;89.69;101592.63;5044829;28;20123;-76
2022/02/05 03:49:21;;;;;;;15.75;2.70;;;;;;;2.09;89.89;101605.50;5047516;28;20082;-76
2022/02/05 03:51:48;;;;;;;13.18;1.95;;;;;;;2.08;89.60;101602.13;5043703;28;20394;-78
2022/02/05 03:54:15;;;;;;;17.77;2.40;;;;;;;2.07;89.88;101604.75;5044736;28;20032;-78
2022/02/05 03:56:41;;;;;;;16.25;2.58;;;;;;;2.03;89.85;101606.66;5045374;28;20090;-77
2022/02/05 03:59:06;;;;;;;11.40;3.20;;;;;;;1.88;90.56;101610.81;5046944;28;20047;-77
2022/02/05 04:01:33;;;;;;;12.95;2.28;;;;;;;1.95;90.28;101624.13;5044388;28;20028;-76
2022/02/05 04:03:58;;;;;;;14.18;2.80;;;;;;;1.87;90.78;101626.28;5057419;28;20032;-77
2022/02/05 04:06:24;;;;;;;11.23;2.17;;;;;;;1.95;90.57;101619.84;5049412;28;20513;-77
2022/02/05 04:08:51;;;;;;;11.48;2.20;;;;;;;2.02;90.23;101617.81;5060817;28;20315;-76
2022/02/05 04:11:56;;;;;;;12.45;2.92;;;;;;;1.97;90.22;101622.31;5045009;28;20021;-76
2022/02/05 04:16:48;;;;;;;15.18;4.13;;;;;;;2.05;89.73;101624.47;5044742;28;20547;-77
2022/02/05 04:19:15;;;;;;;10.55;2.35;;;;;;;1.97;90.11;101636.84;5062975;28;20123;-76
2022/02/05 04:21:41;;;;;;;13.50;2.92;;;;;;;1.99;90.41;101629.94;5024579;28;20028;-76
2022/02/05 04:24:08;;;;;;;13.18;2.60;;;;;;;1.90;90.36;101624.41;5063083;28;20032;-76
2022/02/05 04:26:33;;;;;;;9.40;2.40;;;;;;;1.82;90.53;101638.47;5044285;28;20072;-77
2022/02/05 04:28:59;;;;;;;15.65;2.72;;;;;;;1.85;90.46;101633.22;5044383;28;20059;-76
2022/02/05 04:31:24;;;;;;;18.88;3.22;;;;;;;1.71;90.58;101637.31;5045805;28;20028;-79
2022/02/05 04:33:50;;;;;;;10.63;2.15;;;;;;;1.70;90.67;101639.94;5043995;28;20082;-76
2022/02/05 04:36:18;;;;;;;9.50;2.63;;;;;;;1.79;90.99;101641.16;5043499;28;20534;-76
2022/02/05 04:38:46;;;;;;;11.38;2.28;;;;;;;1.66;90.76;101633.31;5044597;28;20479;-76
2022/02/05 04:41:18;;;;;;;11.45;2.60;;;;;;;1.72;90.42;101635.56;5044394;28;20033;-77
2022/02/05 05:01:47;;;;;;;12.60;2.80;;;;;;;1.59;90.93;101648.13;5042319;28;20487;-77
2022/02/05 05:12:26;;;;;;;8.40;2.53;;;;;;;1.62;90.74;101663.34;5063919;28;20385;-77
2022/02/05 05:20:20;;;;;;;10.63;2.60;;;;;;;1.58;90.93;101684.81;5042081;28;20035;-76
2022/02/05 05:22:45;;;;;;;12.02;2.65;;;;;;;1.48;91.31;101689.56;5046843;28;20033;-77
2022/02/05 05:25:10;;;;;;;15.60;3.15;;;;;;;1.47;91.22;101690.47;5030797;28;20027;-77
2022/02/05 05:27:37;;;;;;;19.45;3.90;;;;;;;1.69;91.08;101681.72;5049014;28;20403;-78
2022/02/05 05:30:04;;;;;;;12.30;2.83;;;;;;;1.52;91.49;101688.50;5064598;28;20505;-76
2022/02/05 05:32:30;;;;;;;14.38;2.42;;;;;;;1.55;91.38;101692.66;5046059;28;20041;-77
2022/02/05 05:34:55;;;;;;;15.35;3.05;;;;;;;1.58;91.14;101689.94;5064609;28;20071;-76
2022/02/05 05:37:21;;;;;;;11.43;2.47;;;;;;;1.47;91.69;101704.97;5064764;28;20093;-77
2022/02/05 05:39:49;;;;;;;18.30;2.95;;;;;;;1.50;92.01;101705.66;5047492;28;20047;-78
2022/02/05 05:42:21;;;;;;;9.85;2.88;;;;;;;1.55;91.95;101697.78;5048860;28;20028;-76
2022/02/05 05:47:20;;;;;;;12.93;2.97;;;;;;;1.49;92.17;101695.53;5069134;28;20371;-76
2022/02/05 05:52:17;;;;;;;18.10;2.83;;;;;;;1.60;91.53;101706.06;5064160;28;20036;-77
2022/02/05 05:54:43;;;;;;;13.90;2.90;;;;;;;1.52;91.49;101706.41;5034884;28;20043;-76
2022/02/05 05:57:09;;;;;;;13.20;2.95;;;;;;;1.49;91.90;101703.19;5052286;28;20043;-76
2022/02/05 05:59:38;;;;;;;11.23;3.05;;;;;;;1.63;91.84;101715.28;5054956;28;20139;-77
2022/02/05 06:02:04;;;;;;;24.92;2.83;;;;;;;1.64;91.18;101717.78;5047044;28;20646;-76
2022/02/05 06:04:29;;;;;;;17.40;3.38;;;;;;;1.68;91.37;101703.94;5044334;28;20040;-78
2022/02/05 06:06:55;;;;;;;13.55;3.20;;;;;;;1.56;91.53;101722.41;5061735;28;20028;-76
2022/02/05 06:09:20;;;;;;;18.35;2.88;;;;;;;1.58;92.13;101712.13;5047351;28;20090;-76
2022/02/05 06:11:46;;;;;;;11.18;2.75;;;;;;;1.52;92.10;101714.06;5062506;28;20124;-77
2022/02/05 06:14:16;;;;;;;11.25;4.18;;;;;;;1.51;92.05;101721.84;5047718;28;20081;-78
2022/02/05 06:16:43;;;;;;;14.68;2.75;;;;;;;1.45;91.87;101724.66;5063413;28;20033;-77
2022/02/05 06:19:08;;;;;;;15.02;4.63;;;;;;;1.55;91.95;101723.34;5045110;28;20032;-77
2022/02/05 06:21:34;;;;;;;10.45;2.45;;;;;;;1.53;91.61;101730.25;5064334;28;20058;-78
2022/02/05 06:23:59;;;;;;;9.48;2.38;;;;;;;1.58;91.75;101732.56;5047542;28;20093;-76
2022/02/05 06:26:25;;;;;;;12.52;2.65;;;;;;;1.55;91.48;101733.56;5047083;28;20089;-77
2022/02/05 06:28:50;;;;;;;17.80;3.10;;;;;;;1.42;92.24;101732.50;5047378;28;20044;-77
2022/02/05 06:31:16;;;;;;;14.70;2.83;;;;;;;1.39;92.61;101748.78;5063344;28;20040;-77
2022/02/05 06:33:41;;;;;;;13.15;2.35;;;;;;;1.54;92.11;101739.56;5052216;28;20032;-77
2022/02/05 06:36:07;;;;;;;18.42;3.15;;;;;;;1.41;92.25;101744.44;5064536;28;20037;-76
2022/02/05 06:38:32;;;;;;;16.05;3.45;;;;;;;1.40;92.21;101753.03;5047055;28;20029;-77
2022/02/05 06:40:57;;;;;;;13.98;3.05;;;;;;;1.38;92.34;101743.78;5063167;28;20070;-77
2022/02/05 06:43:23;;;;;;;12.57;3.30;;;;;;;1.42;92.20;101745.28;5041797;28;20029;-77
2022/02/05 06:45:48;;;;;;;19.13;3.80;;;;;;;1.33;92.70;101749.91;5045707;28;20044;-76
2022/02/05 06:48:14;;;;;;;12.63;2.75;;;;;;;1.36;92.80;101754.06;5030911;28;20040;-77
2022/02/05 06:50:40;;;;;;;21.08;3.60;;;;;;;1.43;92.29;101752.03;5064086;28;20036;-76
2022/02/05 06:53:05;;;;;;;13.02;2.95;;;;;;;1.34;92.32;101750.75;5063581;28;20046;-77
2022/02/05 06:55:31;;;;;;;20.15;3.58;;;;;;;1.32;92.78;101761.06;5046953;28;20032;-77
2022/02/05 06:57:56;;;;;;;12.20;2.38;;;;;;;1.33;92.96;101759.31;5064144;28;20086;-76
2022/02/05 07:00:22;;;;;;;18.90;3.92;;;;;;;1.30;93.06;101764.56;5044875;28;20091;-77
2022/02/05 07:02:47;;;;;;;13.18;2.50;;;;;;;1.29;92.69;101762.94;5056987;28;20032;-76
2022/02/05 07:05:13;;;;;;;15.77;3.22;;;;;;;1.35;93.00;101760.91;5062859;28;20078;-76
2022/02/05 07:07:40;;;;;;;21.48;3.15;;;;;;;1.32;92.94;101767.91;5046922;28;20039;-76
2022/02/05 07:10:07;;;;;;;17.23;3.78;;;;;;;1.35;92.93;101765.19;5046042;28;20032;-77
2022/02/05 07:12:37;;;;;;;12.50;3.20;;;;;;;1.41;92.75;101767.44;5064043;28;20043;-77
2022/02/05 07:15:08;;;;;;;13.27;2.78;;;;;;;1.29;93.15;101766.31;5045770;28;20060;-76
2022/02/05 07:20:19;;;;;;;10.80;3.35;;;;;;;1.35;93.11;101777.97;5064442;28;20342;-77
2022/02/05 07:23:10;;;;;;;11.35;2.45;;;;;;;1.34;93.34;101781.44;5058665;28;20455;-76
2022/02/05 07:31:12;;;;;;;8.80;2.92;;;;;;;1.40;92.97;101776.03;5047501;28;20033;-77
2022/02/05 07:33:37;;;;;;;9.02;2.30;;;;;;;1.41;93.08;101779.41;5060868;28;20449;-76
2022/02/05 07:36:03;;;;;;;14.38;2.42;;;;;;;1.42;93.24;101779.34;5064866;28;20033;-76
2022/02/05 07:38:28;;;;;;;14.65;2.67;;;;;;;1.33;93.46;101787.44;5064449;28;20052;-77
2022/02/05 07:40:54;;;;;;;13.55;3.28;;;;;;;1.32;93.93;101785.78;5029103;28;20385;-76
2022/02/05 07:43:27;;;;;;;17.75;2.83;;;;;;;1.51;93.65;101786.56;5066823;28;20037;-76
2022/02/05 07:45:53;;;;;;;14.27;2.63;;;;;;;1.45;93.39;101791.13;5059750;28;20035;-78
2022/02/05 07:48:19;;;;;;;15.90;2.92;;;;;;;1.62;93.20;101795.44;5062112;28;20029;-76
2022/02/05 07:50:44;;;;;;;15.20;3.47;;;;;;;1.58;92.64;101806.72;5064826;28;20165;-76
2022/02/05 07:53:10;;;;;;;13.43;2.97;;;;;;;1.67;92.62;101799.44;5061425;28;20040;-76
2022/02/05 07:55:35;;;;;;;12.63;2.90;;;;;;;1.61;92.77;101796.34;5062374;28;20039;-76
2022/02/05 07:58:01;;;;;;;16.98;5.18;;;;;;;1.59;92.98;101796.44;5046469;28;20040;-77
2022/02/05 08:00:26;;;;;;;14.18;2.70;;;;;;;1.64;92.96;101799.59;5040939;28;20474;-77
2022/02/05 08:02:56;;;;;;;22.75;3.75;;;;;;;1.65;92.96;101803.78;5064699;28;20032;-76
2022/02/05 08:05:22;;;;;;;22.60;3.15;;;;;;;1.75;93.19;101806.72;5045291;28;20553;-76
2022/02/05 08:07:48;;;;;;;13.82;3.33;;;;;;;1.87;92.96;101807.88;5045062;28;20032;-76
2022/02/05 08:10:15;;;;;;;16.25;3.28;;;;;;;1.89;92.40;101804.34;5062300;28;20363;-76
2022/02/05 08:12:43;;;;;;;21.17;3.58;;;;;;;1.83;92.58;101808.91;5062693;28;20040;-76
2022/02/05 08:15:09;;;;;;;15.05;3.97;;;;;;;1.94;92.41;101819.44;5064462;28;20042;-77
2022/02/05 08:17:36;;;;;;;12.25;3.17;;;;;;;1.88;92.49;101810.34;5063424;28;20059;-77
2022/02/05 08:20:03;;;;;;;9.98;2.90;;;;;;;1.82;92.54;101818.31;5063651;28;20389;-76
2022/02/05 08:22:29;;;;;;;18.60;3.20;;;;;;;1.97;92.29;101821.06;5043085;28;20044;-77
2022/02/05 08:24:54;;;;;;;8.77;3.33;;;;;;;2.06;92.17;101829.09;5061759;28;20036;-78
2022/02/05 08:27:20;;;;;;;12.38;2.72;;;;;;;2.13;92.01;101833.00;5062833;28;20078;-77
2022/02/05 08:32:19;;;;;;;11.63;3.70;;;;;;;2.23;91.19;101840.25;5060207;28;20449;-77
2022/02/05 08:34:45;;;;;;;27.75;6.82;;;;;;;2.21;90.98;101844.59;5047476;28;20036;-78
2022/02/05 08:37:11;;;;;;;39.60;13.55;;;;;;;2.38;90.87;101843.78;5045696;28;20032;-78
2022/02/05 08:39:36;;;;;;;46.33;14.13;;;;;;;2.52;90.45;101844.72;5043640;28;20502;-77
2022/02/05 08:42:03;;;;;;;29.15;7.95;;;;;;;2.74;89.43;101846.19;5045995;28;20029;-77
2022/02/05 08:44:28;;;;;;;12.13;6.40;;;;;;;2.99;88.41;101857.69;5041176;28;20032;-77
2022/02/05 08:46:54;;;;;;;13.02;3.75;;;;;;;3.20;87.80;101850.59;5062456;28;20024;-78
2022/02/05 08:49:19;;;;;;;13.60;4.22;;;;;;;3.37;87.57;101847.13;5062039;28;20475;-77
2022/02/05 08:51:45;;;;;;;16.23;3.17;;;;;;;3.63;85.70;101843.13;5044527;28;20384;-77
2022/02/05 08:54:10;;;;;;;17.48;3.88;;;;;;;3.78;84.50;101841.44;5047104;28;20075;-77
2022/02/05 08:56:36;;;;;;;14.65;3.05;;;;;;;3.88;83.72;101840.00;5062412;28;20041;-77
2022/02/05 08:59:03;;;;;;;14.93;3.63;;;;;;;4.09;83.10;101843.09;5065610;28;20115;-76
2022/02/05 09:01:41;;;;;;;20.55;2.88;;;;;;;4.18;81.95;101828.91;5031398;28;20029;-77
2022/02/05 09:04:19;;;;;;;17.92;3.85;;;;;;;4.28;82.12;101827.47;5066603;28;20032;-77
2022/02/05 09:06:46;;;;;;;31.20;3.88;;;;;;;4.45;81.44;101824.72;5048879;28;20107;-77
2022/02/05 09:09:22;;;;;;;21.40;3.60;;;;;;;4.52;81.10;101826.91;5029930;28;20043;-76
2022/02/05 09:11:56;;;;;;;19.30;3.40;;;;;;;4.55;80.96;101825.00;5056004;28;20487;-76
2022/02/05 09:16:56;;;;;;;10.65;3.35;;;;;;;4.66;80.35;101821.78;5065864;28;20429;-77
2022/02/05 09:19:22;;;;;;;11.85;3.22;;;;;;;4.68;80.24;101823.34;5063831;28;20032;-77
2022/02/05 09:21:47;;;;;;;19.63;3.28;;;;;;;4.59;80.65;101812.78;5047539;28;20020;-77
2022/02/05 09:24:13;;;;;;;16.77;3.35;;;;;;;4.53;81.05;101828.59;5066876;28;20028;-78
2022/02/05 09:26:44;;;;;;;13.88;3.05;;;;;;;4.37;81.56;101829.50;5071646;28;20041;-77
2022/02/05 09:29:20;;;;;;;13.82;3.72;;;;;;;4.24;82.28;101828.56;5070810;28;20028;-76
2022/02/05 09:31:47;;;;;;;17.92;3.50;;;;;;;4.07;83.46;101842.38;5067567;28;20044;-78
2022/02/05 09:34:12;;;;;;;22.48;4.10;;;;;;;3.99;83.96;101845.34;5042572;28;20039;-78
2022/02/05 09:36:39;;;;;;;18.35;3.40;;;;;;;3.93;84.56;101850.03;5054722;28;20040;-78
2022/02/05 09:39:07;;;;;;;18.92;3.28;;;;;;;3.93;85.21;101855.16;5055008;28;20086;-77
2022/02/05 09:41:33;;;;;;;14.55;3.45;;;;;;;3.95;84.89;101858.47;5048311;28;20040;-77
2022/02/05 09:43:58;;;;;;;24.05;3.95;;;;;;;3.99;85.02;101860.75;5031180;28;20032;-77
2022/02/05 09:46:24;;;;;;;23.52;4.40;;;;;;;3.89;85.19;101851.94;5044318;28;20040;-78
2022/02/05 09:48:51;;;;;;;45.42;12.27;;;;;;;3.98;84.86;101863.44;5067100;28;20234;-77
2022/02/05 09:51:25;;;;;;;42.97;14.57;;;;;;;4.06;85.04;101861.25;5047797;28;20043;-77
2022/02/05 09:53:53;;;;;;;34.58;8.45;;;;;;;4.04;85.01;101858.75;5063780;28;20140;-77
2022/02/05 09:56:20;;;;;;;21.58;7.40;;;;;;;3.96;85.87;101867.81;5046046;28;20037;-76
2022/02/05 09:58:46;;;;;;;32.05;9.15;;;;;;;3.95;85.45;101866.97;5066505;28;20043;-77
2022/02/05 10:01:19;;;;;;;22.05;5.15;;;;;;;4.04;85.71;101863.91;5069088;28;20036;-78
2022/02/05 10:03:47;;;;;;;16.98;4.25;;;;;;;4.04;85.35;101868.22;5049929;28;20048;-76
2022/02/05 10:06:24;;;;;;;19.42;4.68;;;;;;;4.01;85.27;101868.38;5064903;28;20051;-78
2022/02/05 10:09:11;;;;;;;16.48;5.50;;;;;;;3.98;85.61;101868.56;5063249;28;20032;-76
2022/02/05 10:11:59;;;;;;;17.75;3.65;;;;;;;4.05;85.65;101874.97;5062848;28;20043;-77
2022/02/05 10:14:27;;;;;;;22.48;3.92;;;;;;;4.10;85.36;101873.81;5045119;28;20028;-77
2022/02/05 10:16:55;;;;;;;22.27;4.43;;;;;;;4.17;85.40;101869.16;5063684;28;20063;-77
2022/02/05 10:19:22;;;;;;;15.30;4.22;;;;;;;4.22;85.16;101880.00;5048321;28;20123;-77
2022/02/05 10:22:08;;;;;;;16.35;3.50;;;;;;;4.26;84.98;101884.03;5067391;28;20029;-77
2022/02/05 10:24:33;;;;;;;14.68;3.42;;;;;;;4.36;84.96;101896.34;5041850;28;20102;-78
2022/02/05 10:27:00;;;;;;;24.65;4.70;;;;;;;4.25;84.99;101882.38;5040527;28;20032;-77
2022/02/05 10:29:26;;;;;;;15.90;4.40;;;;;;;4.42;84.63;101889.09;5046744;28;20055;-77
2022/02/05 10:35:05;;;;;;;;;;;;;;;4.39;84.50;101878.16;5065207;28;20119;-77
2022/02/05 10:37:41;;;;;;;11.25;3.90;;;;;;;4.39;84.42;101885.88;5063336;28;19927;-76
2022/02/05 10:40:13;;;;;;;23.40;4.68;;;;;;;4.48;84.15;101878.50;5046387;28;20036;-77
2022/02/05 10:43:02;;;;;;;13.30;4.18;;;;;;;4.51;84.07;101877.47;5044740;28;20475;-79
2022/02/05 10:45:40;;;;;;;15.32;3.67;;;;;;;4.45;83.17;101878.66;5041259;28;20056;-77
2022/02/05 10:48:06;;;;;;;15.13;4.55;;;;;;;4.56;83.58;101869.47;5062347;28;20063;-77
2022/02/05 10:50:35;;;;;;;39.45;11.85;;;;;;;4.63;82.53;101863.91;5062171;28;20098;-77
2022/02/05 10:53:08;;;;;;;14.25;3.85;;;;;;;4.65;83.28;101869.78;5063233;28;20500;-77
2022/02/05 10:56:19;;;;;;;16.13;4.72;;;;;;;4.77;82.98;101864.84;5044901;28;20498;-77
2022/02/05 10:59:13;;;;;;;15.98;4.97;;;;;;;5.02;82.63;101856.44;5057539;28;20071;-77
2022/02/05 11:07:13;;;;;;;16.17;3.10;;;;;;;4.88;79.85;101865.00;5062464;28;20546;-76
2022/02/05 11:09:43;;;;;;;23.02;3.40;;;;;;;4.86;80.79;101864.28;5045114;28;20024;-77
2022/02/05 11:20:05;;;;;;;13.98;3.67;;;;;;;5.01;79.57;101854.78;5061889;28;20487;-78
2022/02/05 11:22:34;;;;;;;15.18;3.45;;;;;;;5.08;79.57;101856.06;5061311;28;20120;-77
2022/02/05 11:25:02;;;;;;;19.58;3.53;;;;;;;5.31;78.90;101849.50;5046336;28;20040;-79
2022/02/05 11:27:28;;;;;;;23.33;3.25;;;;;;;5.38;78.16;101848.19;5064356;28;20081;-77
2022/02/05 11:29:53;;;;;;;12.68;3.42;;;;;;;5.40;78.22;101843.78;5047250;28;20048;-76
2022/02/05 11:32:25;;;;;;;18.38;3.08;;;;;;;5.47;79.00;101837.31;5045359;28;20040;-76
2022/02/05 11:35:29;;;;;;;13.87;2.50;;;;;;;5.42;75.83;101835.97;5047948;28;20121;-77
2022/02/05 11:37:57;;;;;;;13.95;2.20;;;;;;;5.36;75.85;101836.34;5050606;28;20110;-77
2022/02/05 11:40:41;;;;;;;12.10;2.42;;;;;;;5.33;75.99;101832.25;5045125;28;20098;-77
2022/02/05 11:43:25;;;;;;;9.93;2.55;;;;;;;5.33;76.29;101839.97;5064016;28;20048;-77
2022/02/05 11:46:06;;;;;;;15.90;2.60;;;;;;;5.41;76.63;101837.72;5063397;28;20032;-76
2022/02/05 11:48:47;;;;;;;13.13;2.88;;;;;;;5.64;76.49;101843.97;5042934;28;20457;-77
2022/02/05 11:51:14;;;;;;;15.65;3.35;;;;;;;5.71;76.58;101844.41;5044724;28;20557;-77
2022/02/05 11:53:55;;;;;;;15.48;3.00;;;;;;;6.04;76.09;101830.28;5063347;28;20471;-76
2022/02/05 11:56:21;;;;;;;16.77;2.85;;;;;;;6.06;72.75;101830.19;5061199;28;20047;-76
2022/02/05 11:58:59;;;;;;;14.23;2.60;;;;;;;6.00;72.00;101832.22;5045184;28;20024;-77
2022/02/05 12:01:39;;;;;;;10.95;3.13;;;;;;;5.89;72.70;101834.66;5045960;28;20365;-77
2022/02/05 12:04:09;;;;;;;14.80;2.33;;;;;;;6.07;73.52;101831.84;5046468;28;20041;-77
2022/02/05 12:06:58;;;;;;;52.00;15.07;;;;;;;5.99;73.10;101832.31;5044578;28;20037;-76
2022/02/05 12:09:42;;;;;;;32.92;11.57;;;;;;;5.92;72.60;101831.88;5043682;28;20511;-77
2022/02/05 12:12:27;;;;;;;21.95;4.32;;;;;;;5.97;71.81;101832.47;5060837;28;20028;-76
2022/02/05 12:15:11;;;;;;;9.45;3.80;;;;;;;6.04;72.74;101831.09;5044981;28;20044;-77
2022/02/05 12:20:31;;;;;;;15.27;2.65;;;;;;;6.03;72.04;101810.63;5061878;28;20490;-78
2022/02/05 12:25:58;;;;;;;21.25;2.67;;;;;;;6.19;72.01;101808.66;5066218;28;20071;-77
2022/02/05 12:28:32;;;;;;;13.05;2.75;;;;;;;6.18;71.43;101801.06;5041780;28;20032;-75
2022/02/05 12:31:02;;;;;;;15.65;2.33;;;;;;;6.27;70.99;101804.75;5042050;28;20044;-78
2022/02/05 12:33:46;;;;;;;10.65;1.80;;;;;;;6.21;70.86;101811.13;5048764;28;20067;-77
2022/02/05 12:36:12;;;;;;;11.40;1.50;;;;;;;6.13;69.28;101798.78;5048359;28;20044;-77
2022/02/05 12:38:42;;;;;;;13.93;1.85;;;;;;;6.22;69.02;101797.34;5070402;28;20418;-78
2022/02/05 12:41:10;;;;;;;10.55;2.15;;;;;;;6.24;68.97;101791.16;5052823;28;20223;-77
2022/02/05 12:43:48;;;;;;;16.35;2.22;;;;;;;6.21;67.74;101793.09;5071810;28;20040;-77
2022/02/05 12:46:14;;;;;;;11.43;2.10;;;;;;;6.16;68.26;101777.13;5066523;28;20032;-77
2022/02/05 12:48:40;;;;;;;4.38;1.67;;;;;;;6.27;68.62;101779.00;5069429;28;20039;-77
2022/02/05 12:51:06;;;;;;;11.43;2.03;;;;;;;6.28;68.61;101781.47;5052956;28;20484;-76
2022/02/05 12:53:38;;;;;;;12.68;2.45;;;;;;;6.39;69.46;101780.75;5050627;28;20028;-77
2022/02/05 12:56:17;;;;;;;9.65;1.95;;;;;;;6.38;69.05;101779.91;5051007;28;20239;-77
2022/02/05 12:59:02;;;;;;;25.58;6.45;;;;;;;6.41;67.58;101787.44;5070091;28;20521;-77
2022/02/05 13:01:33;;;;;;;10.27;2.72;;;;;;;6.53;66.04;101792.69;5067077;28;20039;-76
2022/02/05 13:04:19;;;;;;;8.98;1.40;;;;;;;6.58;66.44;101782.88;5050072;28;20447;-77
2022/02/05 13:06:45;;;;;;;11.35;2.05;;;;;;;6.52;65.86;101771.25;5068679;28;20035;-78
2022/02/05 13:09:21;;;;;;;9.98;2.15;;;;;;;6.50;65.53;101780.84;5053080;28;20025;-77
2022/02/05 13:11:57;;;;;;;8.70;1.90;;;;;;;6.38;66.25;101777.31;5070573;28;20067;-78
2022/02/05 13:14:32;;;;;;;10.50;1.75;;;;;;;6.32;66.28;101777.75;5052738;28;20106;-78
2022/02/05 13:16:58;;;;;;;8.10;2.20;;;;;;;6.49;65.55;101776.59;5052959;28;20100;-78
2022/02/05 13:19:26;;;;;;;8.95;1.92;;;;;;;6.48;66.32;101768.97;5050598;28;20040;-77
2022/02/05 13:25:01;;;;;;;12.77;1.85;;;;;;;6.43;67.17;101759.00;5068727;28;20036;-78
2022/02/05 13:27:50;;;;;;;10.27;2.00;;;;;;;6.48;66.69;101758.66;5050528;28;20423;-75
2022/02/05 13:36:02;;;;;;;13.75;1.70;;;;;;;6.36;66.10;101757.75;5068602;28;20155;-77
2022/02/05 13:38:33;;;;;;;16.25;2.38;;;;;;;6.37;65.87;101764.56;5049805;28;20139;-77
2022/02/05 13:41:00;;;;;;;9.98;1.60;;;;;;;6.41;65.80;101755.69;5068579;28;20203;-77
2022/02/05 13:43:40;;;;;;;13.20;1.90;;;;;;;6.34;66.77;101768.16;5051777;28;20032;-77
2022/02/05 13:46:14;;;;;;;11.63;1.52;;;;;;;6.41;66.56;101764.25;5042661;28;20040;-78
2022/02/05 13:48:40;;;;;;;6.88;1.88;;;;;;;6.44;66.14;101760.63;5049175;28;20028;-77
2022/02/05 13:51:06;;;;;;;11.05;2.47;;;;;;;6.44;65.90;101760.63;5046953;28;20037;-77
2022/02/05 13:53:32;;;;;;;9.70;1.90;;;;;;;6.42;65.59;101747.88;5047298;28;20044;-77
2022/02/05 13:56:03;;;;;;;10.93;1.98;;;;;;;6.35;65.99;101754.38;5065899;28;20434;-77
2022/02/05 13:58:37;;;;;;;10.35;2.35;;;;;;;6.23;66.22;101739.72;5033711;28;20093;-77
2022/02/05 14:01:03;;;;;;;10.07;2.00;;;;;;;6.21;66.25;101739.84;5044804;28;20109;-77
2022/02/05 14:03:34;;;;;;;19.70;3.00;;;;;;;6.31;66.26;101734.06;5051038;28;20512;-77
2022/02/05 14:06:03;;;;;;;11.85;2.60;;;;;;;6.39;64.61;101731.78;5066164;28;20036;-77
2022/02/05 14:08:49;;;;;;;11.27;1.88;;;;;;;6.45;64.24;101723.63;5030771;28;20063;-77
2022/02/05 14:11:24;;;;;;;19.67;5.25;;;;;;;6.52;64.41;101724.03;5047735;28;20033;-78
2022/02/05 14:13:58;;;;;;;20.05;5.38;;;;;;;6.49;64.04;101725.06;5048148;28;20039;-77
2022/02/05 14:16:37;;;;;;;7.22;2.70;;;;;;;6.62;63.71;101707.81;5047499;28;20036;-77
2022/02/05 14:19:04;;;;;;;16.58;5.60;;;;;;;6.62;63.38;101704.41;5051876;28;20513;-77
2022/02/05 14:21:30;;;;;;;6.25;2.10;;;;;;;6.61;62.88;101731.94;5060217;28;20051;-77
2022/02/05 14:23:57;;;;;;;8.50;1.58;;;;;;;6.57;62.74;101709.91;5043424;28;20558;-77
2022/02/05 14:26:40;;;;;;;19.45;2.10;;;;;;;6.51;63.22;101720.63;5064995;28;20040;-78
2022/02/05 14:29:07;;;;;;;13.63;1.90;;;;;;;6.55;63.08;101719.47;5046940;28;20367;-77